Flight Track Log - Related Links

Times and Time Zones

All times are in EDT time to prevent confusion due to time zone crossing. See the GPD95 flight status page for this flight to view local times or setup timezone preferences in your user account.

Time Position Orientation Groundspeed Altitude Reporting Facility
EDT Latitude Longitude Course Direction KTS MPH feet Rate Location/Type
Sun 04:05:26 PM 41.3433 -70.8808 254° West 124 143 4,600  Level Boston Center
Sun 04:06:27 PM 41.3419 -70.9250 268° West 116 133 5,100 541 Climbing Boston Center
Sun 04:07:28 PM 41.3383 -70.9664 263° West 117 135 5,700 645 Climbing Boston Center
Sun 04:08:28 PM 41.3367 -71.0081 267° West 119 137 6,400 417 Climbing Boston Center
Sun 04:09:00 PM 41.3175 -70.9047 254° West  Level FlightAware Approximate
Sun 04:09:23 PM 41.3331 -71.0550 264° West 129 148 6,500  Level Boston Center
Sun 04:10:00 PM 41.3066 -70.9538 254° West  Level FlightAware Approximate
Sun 04:10:24 PM 41.3297 -71.1078 265° West 148 170 6,500  Level Boston Center
Sun 04:11:25 PM 41.3261 -71.1631 265° West 147 169 6,600  Climbing Boston Center
Sun 04:12:26 PM 41.3206 -71.2211 263° West 148 170 6,500 -47 Descending Boston Center
Sun 04:13:33 PM 41.3189 -71.2764 268° West 142 163 6,500  Level Boston Center
Sun 04:14:34 PM 41.3111 -71.3292 259° West 144 166 6,500  Level Boston Center
Sun 04:15:35 PM 41.3056 -71.3817 262° West 142 163 6,500  Level Boston Center
Sun 04:16:29 PM 41.2997 -71.4289 261° West 144 166 6,500  Level Boston Center
Sun 04:17:36 PM 41.2939 -71.4869 262° West 144 166 6,500  Level Boston Center
Sun 04:18:31 PM 41.2881 -71.5367 261° West 146 168 6,500  Level Boston Center
Sun 04:19:32 PM 41.2822 -71.5894 262° West 140 161 6,500  Level Boston Center
Sun 04:20:33 PM 41.2764 -71.6419 262° West 142 163 6,500  Level Boston Center
Sun 04:21:40 PM 41.2706 -71.7028 263° West 145 167 6,500  Level Boston Center
Sun 04:22:41 PM 41.2647 -71.7581 262° West 149 171 6,500  Level Boston Center
Sun 04:23:36 PM 41.2608 -71.8050 264° West 140 161 6,500  Level Boston Center
Sun 04:24:37 PM 41.2528 -71.8547 258° West 145 167 6,500  Level Boston Center
Sun 04:25:38 PM 41.2447 -71.9100 259° West 142 163 6,500  Level Boston Center
Sun 04:26:39 PM 41.2386 -71.9625 261° West 146 168 6,500  Level Boston Center
Sun 04:27:40 PM 41.2347 -72.0206 265° West 146 168 6,500  Level Boston Center
Sun 04:28:41 PM 41.2264 -72.0731 258° West 148 170 6,500 -50 Level Boston Center
Sun 04:29:41 PM 41.2225 -72.1283 265° West 147 169 6,400 -142 Descending Boston Center
Sun 04:30:48 PM 41.2142 -72.1889 260° West 152 175 6,200 -225 Descending Boston Center
Sun 04:32:21 PM 41.2000 -72.2667 256° West 158 182 5,800 -275 Descending New York TRACON
Sun 04:33:21 PM 41.2000 -72.3333 270° West 158 182 5,500 -250 Descending New York TRACON
Sun 04:34:21 PM 41.1833 -72.3833 246° West 160 184 5,300 -250 Descending New York TRACON
Sun 04:35:21 PM 41.1833 -72.4500 270° West 161 185 5,000 -250 Descending New York TRACON
Sun 04:36:21 PM 41.1667 -72.5000 246° West 159 183 4,800 -250 Descending New York TRACON
Sun 04:37:21 PM 41.1500 -72.5500 246° West 158 182 4,500 -150 Descending New York TRACON
Sun 04:38:21 PM 41.1333 -72.6000 246° West 151 174 4,500  Level New York TRACON
Sun 04:39:21 PM 41.1333 -72.6667 270° West 148 170 4,500  Level New York TRACON
Sun 04:40:21 PM 41.1167 -72.7167 246° West 148 170 4,500  Level New York TRACON
Sun 04:41:21 PM 41.1000 -72.7667 246° West 147 169 4,500  Level New York TRACON
Sun 04:43:21 PM 41.0833 -72.8667 258° West 148 170 4,500  Level New York TRACON
Sun 04:44:21 PM 41.0667 -72.9167 246° West 149 171 4,500  Level New York TRACON
Sun 04:45:15 PM 41.0667 -72.9667 270° West 150 173 4,500  Level New York TRACON
Sun 04:46:15 PM 41.0500 -73.0167 246° West 149 171 4,500 -48 Level New York TRACON
Sun 04:47:21 PM 41.0333 -73.0833 252° West 155 178 4,400 -250 Descending New York TRACON
Sun 04:48:15 PM 41.0167 -73.1333 246° West 161 185 4,000 -368 Descending New York TRACON
Sun 04:49:15 PM 41.0167 -73.1833 270° West 160 184 3,700 -400 Descending New York TRACON
Sun 04:50:15 PM 41.0000 -73.2500 252° West 160 184 3,200 -400 Descending New York TRACON
Sun 04:51:15 PM 41.0000 -73.3000 270° West 159 183 2,900 -333 Descending New York TRACON
Sun 04:52:21 PM 41.0000 -73.3667 270° West 157 181 2,500 -200 Descending New York TRACON
Sun 04:53:15 PM 41.0000 -73.4167 270° West 151 174 2,500 -150 Level New York TRACON
Sun 04:54:21 PM 41.0000 -73.4833 270° West 159 183 2,200 -250 Descending New York TRACON
Sun 04:55:15 PM 41.0333 -73.5000 339° North 168 193 2,000 -100 Descending New York TRACON
Sun 04:56:21 PM 41.0667 -73.5333 323° Northwest 156 180 2,000  Level New York TRACON
Sun 04:57:15 PM 41.0667 -73.5833 270° West 152 175 2,000 -158 Level New York TRACON
Sun 04:58:15 PM 41.0667 -73.6500 270° West 153 176 1,700 -600 Descending New York TRACON
Sun 04:59:15 PM 41.0667 -73.6833 270° West 102 117 800 -900 Descending New York TRACON
Sun 05:01:00 PM 41.0667 -73.7000 288° West  Level FlightAware Approximate
Sun 05:08:00 PM 41.0669 -73.7076 288° West  Level Estimated
Sun 05:09:00 PM 41.0667 -73.7000 288° West  Level FlightAware Approximate

Login

Don't have an account? Register now (free) for customized features, flight alerts, and more!